Time;durP1;ratioP1;P1;durP2;ratioP2;P2;SDS_P1;SDS_P2;PMS_P1;PMS_P2;Temp;Humidity;BMP_temperature;BMP_pressure;BME280_temperature;BME280_humidity;BME280_pressure;Samples;Min_cycle;Max_cycle;Signal;HPM_P1;HPM_P2
2023/12/09 00:02:28;;;;;;;35.50;17.10;;;;;;;-0.86;79.58;100453.50;131669;1249;106164;-85
2023/12/09 00:05:34;;;;;;;42.70;17.80;;;;;;;-0.86;79.58;100448.42;131541;1253;108593;-84
2023/12/09 00:08:40;;;;;;;37.70;16.20;;;;;;;-0.86;79.58;100445.29;131633;1253;107628;-85
2023/12/09 00:11:45;;;;;;;38.50;17.40;;;;;;;-0.86;79.65;100442.34;131750;1253;106493;-86
2023/12/09 00:14:51;;;;;;;34.60;14.90;;;;;;;-0.84;79.67;100439.25;131418;1250;108066;-85
2023/12/09 00:17:56;;;;;;;39.50;16.80;;;;;;;-0.77;79.64;100436.13;131600;1253;108241;-86
2023/12/09 00:21:02;;;;;;;36.80;16.60;;;;;;;-0.71;79.60;100434.27;131620;1253;107854;-86
2023/12/09 00:24:08;;;;;;;37.30;16.40;;;;;;;-0.65;79.68;100434.98;131718;1251;107115;-86
2023/12/09 00:27:14;;;;;;;36.20;16.70;;;;;;;-0.58;79.59;100433.80;131546;1251;107911;-85
2023/12/09 00:30:19;;;;;;;38.40;17.30;;;;;;;-0.61;79.44;100432.55;131383;1253;107989;-86
2023/12/09 00:33:25;;;;;;;35.70;16.40;;;;;;;-0.67;79.42;100436.16;131664;1250;108456;-86
2023/12/09 00:36:30;;;;;;;37.30;17.50;;;;;;;-0.73;79.50;100441.52;131613;1249;107800;-85
2023/12/09 00:39:36;;;;;;;36.20;16.00;;;;;;;-0.77;79.45;100442.43;131675;1249;107171;-86
2023/12/09 00:42:41;;;;;;;33.70;16.00;;;;;;;-0.82;79.55;100442.84;131374;1250;108551;-84
2023/12/09 00:45:47;;;;;;;34.80;16.00;;;;;;;-0.88;79.58;100445.70;131424;1266;107502;-86
2023/12/09 00:48:53;;;;;;;35.90;16.40;;;;;;;-0.90;79.63;100446.38;131457;1251;107554;-85
2023/12/09 00:52:01;;;;;;;34.80;15.60;;;;;;;-0.88;79.84;100439.45;131649;1253;108338;-86
2023/12/09 00:55:09;;;;;;;40.00;17.50;;;;;;;-0.86;79.89;100433.74;131697;1256;108376;-84
2023/12/09 00:58:15;;;;;;;37.20;16.60;;;;;;;-0.84;79.71;100431.25;131530;1256;107704;-84
2023/12/09 01:01:20;;;;;;;39.30;16.70;;;;;;;-0.84;79.73;100424.08;131617;1253;107803;-86
2023/12/09 01:04:26;;;;;;;38.10;16.40;;;;;;;-0.81;79.84;100419.75;131481;1252;106563;-86
2023/12/09 01:07:31;;;;;;;36.20;16.20;;;;;;;-0.76;79.57;100420.55;131432;1251;108009;-86
2023/12/09 01:10:37;;;;;;;37.30;16.90;;;;;;;-0.72;79.58;100421.73;131498;1253;357759;-84
2023/12/09 01:13:43;;;;;;;34.50;16.50;;;;;;;-0.69;79.62;100422.09;131619;1253;107410;-86
2023/12/09 01:16:48;;;;;;;36.40;16.30;;;;;;;-0.69;79.51;100420.73;131509;1253;108291;-87
2023/12/09 01:19:54;;;;;;;34.90;15.70;;;;;;;-0.71;79.63;100419.41;131310;1252;106423;-86
2023/12/09 01:23:00;;;;;;;37.00;16.30;;;;;;;-0.74;79.64;100417.80;131632;1253;106511;-87
2023/12/09 01:26:06;;;;;;;35.00;16.10;;;;;;;-0.77;79.55;100419.38;131694;1253;106917;-87
2023/12/09 01:29:11;;;;;;;34.70;15.60;;;;;;;-0.80;79.73;100414.61;131654;1250;108553;-86
2023/12/09 01:32:17;;;;;;;37.70;16.40;;;;;;;-0.84;79.83;100412.16;131820;1251;107667;-87
2023/12/09 01:35:23;;;;;;;35.60;16.40;;;;;;;-0.89;79.76;100412.64;131628;1253;107205;-86
2023/12/09 01:38:28;;;;;;;36.40;17.10;;;;;;;-0.93;79.75;100417.16;131790;1253;106230;-86
2023/12/09 01:41:34;;;;;;;42.20;17.60;;;;;;;-0.97;79.79;100409.50;131682;1253;106581;-85
2023/12/09 01:44:39;;;;;;;44.60;17.30;;;;;;;-1.02;79.79;100413.08;131567;1253;106422;-85
2023/12/09 01:47:45;;;;;;;39.50;16.50;;;;;;;-1.04;80.05;100419.64;131401;1253;106386;-85
2023/12/09 01:50:51;;;;;;;53.90;17.00;;;;;;;-1.03;79.87;100417.83;131392;1253;106824;-85
2023/12/09 01:53:57;;;;;;;41.80;15.20;;;;;;;-0.96;79.93;100417.84;131884;1253;107556;-85
2023/12/09 01:57:04;;;;;;;39.20;16.90;;;;;;;-0.88;80.06;100411.86;131504;1253;106233;-86
2023/12/09 02:00:12;;;;;;;33.50;14.30;;;;;;;-0.82;79.88;100399.69;131362;1251;106972;-85
2023/12/09 02:03:18;;;;;;;32.50;15.10;;;;;;;-0.75;79.96;100402.88;131735;1250;107192;-84
2023/12/09 02:06:24;;;;;;;33.20;14.60;;;;;;;-0.74;79.80;100404.01;131646;1250;108782;-85
2023/12/09 02:09:29;;;;;;;35.00;15.70;;;;;;;-0.71;79.88;100404.03;131503;1253;107700;-86
2023/12/09 02:12:41;;;;;;;32.40;14.40;;;;;;;-0.71;79.78;100406.14;131680;1250;106776;-85
2023/12/09 02:15:57;;;;;;;62.20;33.60;;;;;;;-0.71;79.83;100400.55;131585;1253;105744;-85
2023/12/09 02:19:08;;;;;;;64.00;32.70;;;;;;;-0.75;79.92;100393.41;131674;1251;106373;-85
2023/12/09 02:22:13;;;;;;;95.20;46.20;;;;;;;-0.76;79.95;100389.61;131777;1253;105366;-86
2023/12/09 02:25:19;;;;;;;72.00;38.80;;;;;;;-0.78;79.95;100392.84;131650;1251;107418;-85
2023/12/09 02:28:28;;;;;;;54.00;26.60;;;;;;;-0.83;79.92;100392.07;131817;1253;107404;-86
2023/12/09 02:31:38;;;;;;;54.20;24.70;;;;;;;-0.88;80.09;100395.99;131686;1250;105469;-84
2023/12/09 02:34:45;;;;;;;34.40;15.30;;;;;;;-0.90;79.96;100397.81;131692;1253;106296;-86
2023/12/09 02:37:52;;;;;;;31.80;14.50;;;;;;;-0.85;80.29;100392.70;131496;1254;107681;-86
2023/12/09 02:40:59;;;;;;;33.60;15.60;;;;;;;-0.78;80.00;100398.61;131676;1253;108029;-83
2023/12/09 02:44:06;;;;;;;36.10;17.20;;;;;;;-0.68;80.24;100393.56;131548;1271;108380;-85
2023/12/09 02:47:15;;;;;;;40.00;16.70;;;;;;;-0.59;80.20;100392.63;131506;1253;107190;-86
2023/12/09 02:50:21;;;;;;;38.40;17.10;;;;;;;-0.53;80.11;100388.48;131592;1251;108609;-85
2023/12/09 02:53:26;;;;;;;69.00;33.00;;;;;;;-0.50;80.02;100388.10;131646;1249;108482;-86
2023/12/09 02:56:32;;;;;;;53.90;31.70;;;;;;;-0.51;80.06;100388.14;131609;1251;106887;-86
2023/12/09 02:59:37;;;;;;;37.50;17.30;;;;;;;-0.53;79.96;100384.45;131546;1251;107814;-85
2023/12/09 03:02:43;;;;;;;40.50;18.40;;;;;;;-0.57;80.23;100384.45;131720;1253;106540;-83
2023/12/09 03:05:48;;;;;;;30.80;14.90;;;;;;;-0.62;80.19;100388.56;131621;1253;106704;-86
2023/12/09 03:08:54;;;;;;;47.80;20.70;;;;;;;-0.63;80.35;100393.13;131589;1251;108573;-85
2023/12/09 03:11:59;;;;;;;49.40;20.60;;;;;;;-0.67;80.28;100393.67;131449;1254;107699;-86
2023/12/09 03:15:06;;;;;;;71.90;27.90;;;;;;;-0.67;80.38;100389.35;131820;1253;107475;-86
2023/12/09 03:18:12;;;;;;;109.00;41.60;;;;;;;-0.69;80.28;100389.11;131846;1253;107631;-86
2023/12/09 03:21:18;;;;;;;77.20;26.60;;;;;;;-0.69;80.54;100382.81;131598;1253;107458;-86
2023/12/09 03:24:23;;;;;;;98.60;39.60;;;;;;;-0.67;80.40;100380.27;131381;1253;108000;-85
2023/12/09 03:27:29;;;;;;;53.30;24.70;;;;;;;-0.61;80.57;100373.84;131361;1253;107410;-86
2023/12/09 03:30:34;;;;;;;38.00;17.60;;;;;;;-0.52;80.52;100371.98;131615;1250;106598;-84
2023/12/09 03:33:40;;;;;;;39.70;17.00;;;;;;;-0.45;80.55;100371.41;131506;1253;107533;-86
2023/12/09 03:36:46;;;;;;;55.50;22.50;;;;;;;-0.37;80.51;100368.60;131726;1257;106443;-86
2023/12/09 03:39:51;;;;;;;54.10;22.60;;;;;;;-0.36;80.38;100362.73;131772;1253;107693;-86
2023/12/09 03:42:57;;;;;;;42.00;17.80;;;;;;;-0.38;80.45;100357.63;131596;1250;107286;-86
2023/12/09 03:46:02;;;;;;;42.20;18.00;;;;;;;-0.40;80.52;100356.47;131640;1253;106309;-84
2023/12/09 03:49:08;;;;;;;58.80;22.20;;;;;;;-0.44;80.65;100353.05;131571;1251;108759;-85
2023/12/09 03:52:13;;;;;;;53.10;21.30;;;;;;;-0.48;80.65;100355.31;131604;1253;107381;-85
2023/12/09 03:55:19;;;;;;;77.80;27.40;;;;;;;-0.50;80.54;100359.63;131457;1250;107363;-84
2023/12/09 03:58:25;;;;;;;92.70;32.50;;;;;;;-0.54;80.75;100354.92;131567;1251;108886;-86
2023/12/09 04:01:31;;;;;;;47.70;18.40;;;;;;;-0.57;80.77;100354.41;131377;1253;107550;-85
2023/12/09 04:04:40;;;;;;;97.60;31.00;;;;;;;-0.63;80.92;100355.73;131624;1251;108633;-85
2023/12/09 04:07:46;;;;;;;57.90;21.90;;;;;;;-0.66;80.98;100353.80;131380;1251;108687;-85
2023/12/09 04:10:51;;;;;;;102.60;34.40;;;;;;;-0.65;81.18;100354.29;131523;1251;108412;-86
2023/12/09 04:13:57;;;;;;;42.40;18.00;;;;;;;-0.59;81.22;100353.79;131798;1253;106278;-85
2023/12/09 04:17:03;;;;;;;70.40;31.40;;;;;;;-0.52;81.28;100349.98;131519;1253;108577;-85
2023/12/09 04:20:10;;;;;;;56.00;24.30;;;;;;;-0.44;81.12;100345.17;131717;1253;107761;-86
2023/12/09 04:23:16;;;;;;;46.50;19.90;;;;;;;-0.39;81.09;100341.77;131575;1253;106485;-86
2023/12/09 04:26:22;;;;;;;43.10;18.50;;;;;;;-0.37;81.07;100333.08;131515;1256;107648;-86
2023/12/09 04:29:27;;;;;;;37.80;16.80;;;;;;;-0.35;81.14;100329.66;131457;1251;108702;-86
2023/12/09 04:32:33;;;;;;;57.00;22.90;;;;;;;-0.37;81.15;100330.30;131380;1256;106318;-85
2023/12/09 04:35:38;;;;;;;48.00;20.10;;;;;;;-0.41;81.21;100322.61;131389;1250;107726;-85
2023/12/09 04:38:44;;;;;;;82.20;27.70;;;;;;;-0.45;81.37;100320.23;131509;1252;106543;-86
2023/12/09 04:41:50;;;;;;;41.30;17.00;;;;;;;-0.49;81.59;100326.55;131565;1253;109415;-87
2023/12/09 04:44:55;;;;;;;61.30;22.60;;;;;;;-0.51;81.40;100324.05;131676;1253;108542;-85
2023/12/09 04:48:01;;;;;;;101.90;32.40;;;;;;;-0.54;81.43;100320.52;131734;1250;107652;-86
2023/12/09 04:51:07;;;;;;;47.80;18.40;;;;;;;-0.55;81.53;100313.58;131801;1251;108191;-86
2023/12/09 04:54:13;;;;;;;87.70;27.50;;;;;;;-0.54;81.62;100311.98;131551;1253;106513;-87
2023/12/09 04:57:18;;;;;;;87.60;29.10;;;;;;;-0.46;81.83;100309.29;131682;1250;106478;-85
2023/12/09 05:00:24;;;;;;;112.50;38.30;;;;;;;-0.40;81.74;100307.88;131683;1252;107741;-86
2023/12/09 05:03:30;;;;;;;70.90;25.30;;;;;;;-0.34;81.64;100306.01;131779;1250;108541;-85
2023/12/09 05:06:36;;;;;;;65.40;24.80;;;;;;;-0.27;81.53;100304.74;131482;1250;107615;-85
2023/12/09 05:09:42;;;;;;;86.60;36.00;;;;;;;-0.24;81.68;100306.34;131765;1251;108382;-86
2023/12/09 05:12:48;;;;;;;67.00;26.90;;;;;;;-0.22;81.58;100303.11;131654;1250;108686;-86
2023/12/09 05:15:53;;;;;;;44.90;18.60;;;;;;;-0.23;81.64;100304.19;131466;1249;107515;-86
2023/12/09 05:18:59;;;;;;;64.90;26.60;;;;;;;-0.24;81.56;100301.30;131725;1253;106517;-85
2023/12/09 05:22:05;;;;;;;92.30;34.30;;;;;;;-0.25;81.68;100303.77;131392;1254;107372;-85
2023/12/09 05:25:11;;;;;;;66.80;27.60;;;;;;;-0.25;81.71;100304.81;131590;1254;106988;-85
2023/12/09 05:28:16;;;;;;;49.20;20.40;;;;;;;-0.26;81.64;100305.42;131663;1253;107692;-85
2023/12/09 05:31:23;;;;;;;70.60;28.30;;;;;;;-0.28;81.76;100303.27;131428;1253;108582;-85
2023/12/09 05:34:28;;;;;;;55.40;22.00;;;;;;;-0.31;81.82;100303.09;131323;1254;108781;-85
2023/12/09 05:37:34;;;;;;;47.70;20.00;;;;;;;-0.31;81.80;100304.48;131422;1263;108816;-86
2023/12/09 05:40:40;;;;;;;46.60;19.40;;;;;;;-0.26;81.93;100303.82;131804;1249;108645;-91
2023/12/09 05:43:45;;;;;;;55.20;24.00;;;;;;;-0.17;81.93;100307.88;131546;1253;107327;-83
2023/12/09 05:46:51;;;;;;;54.80;23.40;;;;;;;-0.09;81.75;100305.68;131446;1253;107092;-84
2023/12/09 05:49:56;;;;;;;66.30;28.40;;;;;;;-0.03;81.80;100302.20;131581;1253;106995;-85
2023/12/09 05:53:08;;;;;;;46.20;19.10;;;;;;;0.02;81.78;100299.36;131833;1253;107040;-86
2023/12/09 05:56:19;;;;;;;48.80;20.40;;;;;;;0.04;81.69;100297.67;131434;1253;107728;-85
2023/12/09 05:59:29;;;;;;;55.50;23.20;;;;;;;0.03;81.63;100291.94;131563;1254;108680;-85
2023/12/09 06:02:39;;;;;;;52.40;22.70;;;;;;;0.01;81.65;100287.17;131443;1256;108309;-84
2023/12/09 06:05:58;;;;;;;52.00;22.20;;;;;;;-0.00;81.56;100283.55;131421;1253;107656;-85
2023/12/09 06:09:07;;;;;;;65.20;26.00;;;;;;;-0.03;81.56;100284.02;131599;1253;108306;-85
2023/12/09 06:12:17;;;;;;;53.70;23.30;;;;;;;-0.04;81.68;100284.45;131469;1251;107686;-86
2023/12/09 06:15:24;;;;;;;85.10;30.60;;;;;;;-0.10;81.85;100287.55;131514;1253;107431;-86
2023/12/09 06:18:36;;;;;;;61.70;24.10;;;;;;;-0.13;81.87;100286.34;131466;1253;107657;-84
2023/12/09 06:21:50;;;;;;;58.20;24.00;;;;;;;-0.14;81.89;100277.80;131560;1254;106790;-85
2023/12/09 06:24:56;;;;;;;52.40;21.40;;;;;;;-0.06;81.95;100283.84;131478;1251;108607;-85
2023/12/09 06:28:02;;;;;;;70.80;28.30;;;;;;;0.05;82.00;100280.13;131698;1263;108500;-85
2023/12/09 06:31:09;;;;;;;96.40;35.20;;;;;;;0.13;82.01;100280.16;131884;1253;108652;-85
2023/12/09 06:34:26;;;;;;;61.30;24.30;;;;;;;0.18;81.88;100279.70;131699;1250;107278;-84
2023/12/09 06:37:38;;;;;;;53.30;21.90;;;;;;;0.18;81.80;100276.41;131406;1248;108793;-84
2023/12/09 06:40:50;;;;;;;76.00;31.60;;;;;;;0.18;81.85;100276.94;131530;1251;106980;-85
2023/12/09 06:43:59;;;;;;;98.20;38.30;;;;;;;0.21;81.84;100280.11;131512;1253;108612;-85
2023/12/09 06:47:05;;;;;;;82.30;32.70;;;;;;;0.23;81.80;100279.45;131542;1251;107122;-85
2023/12/09 06:50:18;;;;;;;63.30;27.00;;;;;;;0.22;81.72;100283.52;131731;1250;108770;-85
2023/12/09 06:53:26;;;;;;;75.50;31.50;;;;;;;0.16;81.74;100283.67;131730;1251;108672;-86
2023/12/09 06:56:33;;;;;;;58.20;25.00;;;;;;;0.14;81.91;100283.30;131777;1253;107018;-85
2023/12/09 06:59:41;;;;;;;49.10;21.60;;;;;;;0.13;81.86;100287.55;131572;1253;108780;-86
2023/12/09 07:02:48;;;;;;;66.40;30.00;;;;;;;0.12;82.01;100291.09;131554;1253;108532;-86
2023/12/09 07:05:57;;;;;;;66.90;26.90;;;;;;;0.15;81.98;100288.46;131508;1251;107182;-85
2023/12/09 07:09:07;;;;;;;47.40;21.10;;;;;;;0.22;82.06;100282.86;131406;1251;108841;-86
2023/12/09 07:12:23;;;;;;;64.00;27.40;;;;;;;0.30;82.18;100277.65;131801;1254;107737;-88
2023/12/09 07:15:33;;;;;;;48.00;22.00;;;;;;;0.36;81.79;100279.75;131614;1251;107490;-85
2023/12/09 07:18:43;;;;;;;45.10;20.70;;;;;;;0.40;81.91;100281.48;131477;1250;107789;-84
2023/12/09 07:21:53;;;;;;;44.40;20.70;;;;;;;0.42;81.92;100283.14;131511;1253;107921;-86
2023/12/09 07:25:01;;;;;;;46.30;22.40;;;;;;;0.44;81.90;100281.29;131658;1251;106610;-86
2023/12/09 07:28:10;;;;;;;52.00;23.90;;;;;;;0.45;81.86;100277.38;131525;1253;108342;-86
2023/12/09 07:31:23;;;;;;;66.20;29.70;;;;;;;0.46;81.87;100277.31;131662;1253;107424;-87
2023/12/09 07:34:29;;;;;;;52.10;24.80;;;;;;;0.45;81.74;100280.17;132084;1253;108645;-87
2023/12/09 07:37:49;;;;;;;47.30;22.10;;;;;;;0.44;81.82;100279.13;131837;1251;106170;-87
2023/12/09 07:40:55;;;;;;;40.90;20.80;;;;;;;0.46;81.94;100279.04;131701;1254;106860;-86
2023/12/09 07:44:08;;;;;;;52.50;23.10;;;;;;;0.48;81.92;100281.88;131633;1258;106262;-88
2023/12/09 07:47:15;;;;;;;;;;;;;;;0.48;81.96;100279.61;131754;1252;106990;-87
2023/12/09 07:50:32;;;;;;;41.70;19.20;;;;;;;0.53;82.01;100279.50;131808;1251;107261;-84
2023/12/09 07:53:39;;;;;;;52.20;22.80;;;;;;;0.63;82.05;100276.96;131866;1248;108745;-86
2023/12/09 07:56:49;;;;;;;49.60;23.90;;;;;;;0.75;81.95;100278.05;131529;1254;108692;-87
2023/12/09 08:00:05;;;;;;;72.80;33.00;;;;;;;0.87;81.77;100277.71;131438;1256;106772;-85
2023/12/09 08:03:12;;;;;;;50.30;24.10;;;;;;;0.97;81.75;100276.38;131623;1251;107568;-86
2023/12/09 08:06:36;;;;;;;44.50;21.70;;;;;;;1.04;81.64;100274.61;131669;1251;107716;-85
2023/12/09 08:09:48;;;;;;;38.80;20.70;;;;;;;1.10;81.48;100269.50;131431;1256;106377;-85
2023/12/09 08:13:09;;;;;;;41.30;20.20;;;;;;;1.15;81.64;100264.83;132836;1247;107721;-86
2023/12/09 08:16:36;;;;;;;40.10;20.10;;;;;;;1.18;81.43;100259.90;132280;1251;107041;-87
2023/12/09 08:19:51;;;;;;;42.70;20.60;;;;;;;1.20;81.50;100263.88;131421;1251;107684;-85
2023/12/09 08:23:01;;;;;;;43.30;21.60;;;;;;;1.20;81.48;100267.69;131604;1254;106360;-86
2023/12/09 08:26:19;;;;;;;44.50;21.80;;;;;;;1.23;81.56;100260.71;131438;1264;106600;-86
2023/12/09 08:29:44;;;;;;;52.00;23.80;;;;;;;1.23;81.55;100256.65;131481;1254;108862;-84
2023/12/09 08:32:57;;;;;;;45.60;21.80;;;;;;;1.25;81.46;100254.59;131813;1252;107864;-86
2023/12/09 08:36:06;;;;;;;40.30;20.00;;;;;;;1.31;81.62;100254.54;132013;1251;107500;-86
2023/12/09 08:39:24;;;;;;;49.40;24.00;;;;;;;1.37;81.53;100253.13;131539;1251;106339;-85
2023/12/09 08:42:29;;;;;;;42.30;21.20;;;;;;;1.43;81.33;100251.19;131669;1251;109478;-86
2023/12/09 08:45:36;;;;;;;42.50;22.20;;;;;;;1.47;81.17;100245.70;131374;1251;106394;-88
2023/12/09 08:48:44;;;;;;;45.20;21.80;;;;;;;1.50;81.23;100254.94;131649;1252;106374;-86
2023/12/09 08:51:50;;;;;;;45.70;22.10;;;;;;;1.56;81.45;100256.88;131808;1251;108757;-84
2023/12/09 08:54:56;;;;;;;47.90;22.20;;;;;;;1.63;81.33;100245.96;131612;1249;108795;-86
2023/12/09 08:58:03;;;;;;;45.50;22.80;;;;;;;1.68;81.18;100245.07;131655;1253;107495;-85
2023/12/09 09:01:11;;;;;;;44.20;23.00;;;;;;;1.72;81.15;100241.52;132164;1251;107376;-84
2023/12/09 09:04:24;;;;;;;44.70;22.20;;;;;;;1.73;81.12;100241.26;132481;1248;107809;-87
2023/12/09 09:07:40;;;;;;;46.40;23.10;;;;;;;1.78;81.30;100235.02;131642;1254;107830;-87
2023/12/09 09:10:46;;;;;;;48.40;23.40;;;;;;;1.85;81.25;100225.45;131448;1251;107597;-87
2023/12/09 09:13:51;;;;;;;47.70;23.80;;;;;;;1.89;81.09;100226.37;131470;1251;106289;-85
2023/12/09 09:16:57;;;;;;;75.90;33.50;;;;;;;1.94;81.28;100227.98;131508;1254;106054;-83
2023/12/09 09:20:03;;;;;;;92.40;42.50;;;;;;;2.03;81.30;100222.55;131506;1253;106747;-85
2023/12/09 09:23:09;;;;;;;84.30;42.60;;;;;;;2.15;81.11;100209.84;131515;1251;107720;-84
2023/12/09 09:26:15;;;;;;;91.00;38.30;;;;;;;2.26;81.17;100203.84;131661;1252;107117;-82
2023/12/09 09:29:20;;;;;;;98.70;38.50;;;;;;;2.30;80.90;100201.98;131660;1254;107565;-85
2023/12/09 09:32:26;;;;;;;55.30;26.60;;;;;;;2.31;80.98;100200.70;131678;1251;106322;-84
2023/12/09 09:35:33;;;;;;;61.40;29.10;;;;;;;2.33;80.99;100195.41;131561;1251;108499;-86
2023/12/09 09:38:39;;;;;;;61.90;30.20;;;;;;;2.35;80.86;100192.14;131551;1251;108284;-87
2023/12/09 09:42:00;;;;;;;57.10;27.10;;;;;;;2.30;80.75;100188.27;131650;1254;105519;-85
2023/12/09 09:45:15;;;;;;;52.90;28.70;;;;;;;2.28;80.61;100189.30;131421;1251;108603;-84
2023/12/09 09:48:24;;;;;;;49.60;25.10;;;;;;;2.22;80.76;100187.28;131572;1253;106666;-82
2023/12/09 09:51:32;;;;;;;62.10;30.80;;;;;;;2.18;80.92;100185.61;131491;1252;108579;-84
2023/12/09 09:54:39;;;;;;;57.00;26.20;;;;;;;2.17;81.02;100190.57;131483;1252;108568;-84
2023/12/09 09:57:46;;;;;;;51.40;25.10;;;;;;;2.14;81.11;100187.10;131638;1254;107732;-85
2023/12/09 10:00:55;;;;;;;47.40;25.00;;;;;;;2.12;81.02;100185.45;131425;1251;107487;-86
2023/12/09 10:04:03;;;;;;;50.10;24.40;;;;;;;2.14;81.11;100176.20;131417;1251;107694;-81
2023/12/09 10:07:09;;;;;;;47.40;24.40;;;;;;;2.20;81.12;100170.36;131528;1254;107231;-87
2023/12/09 10:10:17;;;;;;;48.60;25.30;;;;;;;2.26;81.05;100172.06;131596;1252;106474;-87
2023/12/09 10:13:23;;;;;;;51.60;25.60;;;;;;;2.29;80.95;100169.04;131640;1252;108376;-85
2023/12/09 10:16:29;;;;;;;53.30;27.80;;;;;;;2.31;80.75;100168.05;132062;1249;107751;-85
2023/12/09 10:19:35;;;;;;;50.30;27.10;;;;;;;2.29;80.72;100166.78;131541;1254;106832;-86
2023/12/09 10:22:41;;;;;;;51.40;26.90;;;;;;;2.25;80.73;100161.96;131616;1251;107117;-85
2023/12/09 10:25:48;;;;;;;48.00;26.20;;;;;;;2.21;80.84;100154.98;131643;1267;106675;-85
2023/12/09 10:28:55;;;;;;;54.90;26.60;;;;;;;2.17;80.56;100151.28;133536;1251;107414;-84
2023/12/09 10:32:02;;;;;;;52.40;26.60;;;;;;;2.12;80.58;100151.25;132132;1251;108529;-83
2023/12/09 10:35:09;;;;;;;55.10;26.80;;;;;;;2.10;80.80;100146.80;131909;1251;108850;-84
2023/12/09 10:38:18;;;;;;;51.30;25.70;;;;;;;2.12;80.96;100143.80;131857;1254;108616;-84
2023/12/09 10:41:26;;;;;;;46.20;24.10;;;;;;;2.16;80.83;100143.23;131935;1253;106354;-85
2023/12/09 10:44:32;;;;;;;66.10;31.80;;;;;;;2.20;80.83;100138.59;131612;1251;107113;-85
2023/12/09 10:47:37;;;;;;;53.60;28.00;;;;;;;2.27;81.00;100137.27;131714;1253;107560;-85
2023/12/09 10:50:46;;;;;;;57.70;27.20;;;;;;;2.32;80.73;100140.60;131474;1253;106956;-85
2023/12/09 10:53:51;;;;;;;75.50;37.30;;;;;;;2.33;80.63;100138.95;131610;1247;106370;-82
2023/12/09 10:56:58;;;;;;;58.30;32.30;;;;;;;2.35;80.66;100138.27;131511;1253;108610;-84
2023/12/09 11:00:10;;;;;;;62.10;33.00;;;;;;;2.37;80.57;100136.90;131486;1251;108452;-89
2023/12/09 11:03:14;;;;;;;;;;;;;;;2.36;80.65;100129.42;131568;1250;107086;-87
2023/12/09 11:06:21;;;;;;;52.50;28.00;;;;;;;2.34;80.59;100124.30;131511;1254;108707;-88
2023/12/09 11:09:27;;;;;;;60.40;34.00;;;;;;;2.34;80.68;100121.46;131453;1253;106679;-91
2023/12/09 11:12:35;;;;;;;61.20;32.90;;;;;;;2.33;80.63;100124.92;131549;1251;107667;-88
2023/12/09 11:15:42;;;;;;;56.80;31.50;;;;;;;2.21;80.63;100109.77;131693;1254;106589;-87
2023/12/09 11:18:55;;;;;;;73.20;32.30;;;;;;;2.22;80.82;100124.25;131951;1248;106948;-88
2023/12/09 11:22:01;;;;;;;60.50;29.30;;;;;;;2.19;80.90;100119.39;131639;1254;106878;-86
2023/12/09 11:25:09;;;;;;;59.90;30.40;;;;;;;2.18;80.86;100118.90;131446;1253;107537;-88
2023/12/09 11:28:16;;;;;;;51.50;26.10;;;;;;;2.21;80.91;100119.95;131583;1250;107545;-87
2023/12/09 11:31:22;;;;;;;53.10;28.20;;;;;;;2.27;81.26;100118.96;131606;1248;106617;-88
2023/12/09 11:34:32;;;;;;;56.10;28.40;;;;;;;2.35;80.97;100111.27;131951;1247;107458;-89
2023/12/09 11:37:38;;;;;;;54.30;29.00;;;;;;;2.34;80.97;100107.29;131831;1251;106576;-87
2023/12/09 11:40:44;;;;;;;52.20;27.60;;;;;;;2.33;80.97;100106.98;131439;1251;107684;-87
2023/12/09 11:43:50;;;;;;;53.70;29.10;;;;;;;2.32;81.10;100102.67;131601;1254;106302;-87
2023/12/09 11:46:56;;;;;;;55.10;29.50;;;;;;;2.28;81.10;100101.17;131740;1250;108925;-87
2023/12/09 11:50:02;;;;;;;75.10;39.90;;;;;;;2.28;81.30;100102.22;131509;1254;109344;-90
2023/12/09 11:53:08;;;;;;;59.10;31.10;;;;;;;2.26;81.39;100092.56;131852;1250;108426;-88
2023/12/09 11:56:14;;;;;;;62.40;30.50;;;;;;;2.24;81.37;100090.09;131482;1249;108634;-86
2023/12/09 11:59:19;;;;;;;62.40;31.00;;;;;;;2.24;81.34;100086.91;131420;1255;106390;-87
2023/12/09 12:02:25;;;;;;;66.30;31.90;;;;;;;2.21;81.45;100083.09;131463;1251;106285;-89
2023/12/09 12:05:31;;;;;;;69.50;34.00;;;;;;;2.18;81.64;100081.36;131476;1253;106359;-89
2023/12/09 12:08:37;;;;;;;54.90;27.80;;;;;;;2.21;81.58;100082.02;131578;1253;106490;-87
2023/12/09 12:11:43;;;;;;;58.60;30.00;;;;;;;2.28;81.79;100085.40;131604;1250;106899;-87
2023/12/09 12:14:49;;;;;;;57.50;30.70;;;;;;;2.37;81.77;100082.88;131662;1252;106978;-87
2023/12/09 12:17:55;;;;;;;74.90;36.40;;;;;;;2.46;81.57;100078.41;132792;1250;106805;-85
2023/12/09 12:21:01;;;;;;;84.70;40.50;;;;;;;2.52;81.40;100083.45;132041;1251;107220;-86
2023/12/09 12:24:08;;;;;;;76.10;36.50;;;;;;;2.51;81.61;100076.46;132004;1250;106479;-83
2023/12/09 12:27:14;;;;;;;76.10;36.50;;;;;;;2.52;81.55;100074.48;131679;1249;108921;-83
2023/12/09 12:30:20;;;;;;;77.10;37.80;;;;;;;2.53;81.68;100069.11;131516;1253;108181;-85
2023/12/09 12:33:28;;;;;;;59.60;31.50;;;;;;;2.52;81.49;100069.35;131807;1247;106818;-86
2023/12/09 12:36:35;;;;;;;79.40;36.00;;;;;;;2.49;81.55;100073.77;131575;1255;106529;-85
2023/12/09 12:39:41;;;;;;;63.80;31.90;;;;;;;2.45;81.54;100069.86;131772;1250;107601;-85
2023/12/09 12:42:53;;;;;;;54.10;26.80;;;;;;;2.45;81.49;100070.23;131489;1251;106396;-86
2023/12/09 12:46:04;;;;;;;62.10;32.90;;;;;;;2.50;81.81;100067.60;131407;1253;108027;-87
2023/12/09 12:49:10;;;;;;;86.70;38.60;;;;;;;2.55;81.59;100066.17;131550;1251;107320;-83
2023/12/09 12:52:16;;;;;;;143.90;55.90;;;;;;;2.58;81.61;100062.29;131590;1250;107654;-85
2023/12/09 12:55:23;;;;;;;142.60;58.10;;;;;;;2.56;81.53;100058.04;131550;1252;106545;-86
2023/12/09 12:58:29;;;;;;;170.50;55.60;;;;;;;2.56;81.51;100056.97;131545;1251;106902;-89
2023/12/09 13:01:36;;;;;;;98.20;39.40;;;;;;;2.55;81.52;100052.83;131688;1249;108354;-87
2023/12/09 13:04:42;;;;;;;104.80;41.00;;;;;;;2.49;81.56;100050.23;131623;1253;107647;-83
2023/12/09 13:07:49;;;;;;;93.80;37.30;;;;;;;2.45;81.68;100052.09;131814;1250;105864;-84
2023/12/09 13:10:56;;;;;;;85.50;37.30;;;;;;;2.43;81.65;100046.33;128736;1251;4012316;-83
2023/12/09 13:14:03;;;;;;;182.40;61.40;;;;;;;2.37;81.70;100042.66;131459;1250;107036;-82
2023/12/09 13:17:10;;;;;;;110.70;43.60;;;;;;;2.31;81.95;100043.42;131595;1251;106583;-84
2023/12/09 13:20:18;;;;;;;75.10;32.20;;;;;;;2.26;81.97;100045.15;131751;1249;106295;-83
2023/12/09 13:23:24;;;;;;;79.20;33.60;;;;;;;2.30;82.07;100041.54;131817;1263;108522;-82
2023/12/09 13:26:30;;;;;;;107.00;43.90;;;;;;;2.35;81.94;100045.45;131749;1252;106990;-83
2023/12/09 13:29:36;;;;;;;71.00;34.40;;;;;;;2.39;81.87;100041.67;131611;1250;105671;-84
2023/12/09 13:32:44;;;;;;;69.50;32.10;;;;;;;2.41;81.88;100035.56;131593;1251;106413;-85
2023/12/09 13:35:51;;;;;;;77.40;34.70;;;;;;;2.42;81.97;100033.89;131572;1250;107444;-85
2023/12/09 13:38:57;;;;;;;72.40;32.30;;;;;;;2.40;81.75;100029.81;131627;1250;106651;-85
2023/12/09 13:42:03;;;;;;;81.40;34.20;;;;;;;2.36;81.76;100029.74;131686;1253;108758;-83
2023/12/09 13:45:10;;;;;;;112.10;42.60;;;;;;;2.29;81.95;100023.19;131779;1248;108449;-83
2023/12/09 13:48:16;;;;;;;187.10;58.30;;;;;;;2.24;81.93;100014.25;131696;1247;108670;-86
2023/12/09 13:51:22;;;;;;;80.40;34.80;;;;;;;2.20;82.05;100011.02;131506;1253;106673;-83
2023/12/09 13:54:28;;;;;;;90.00;36.30;;;;;;;2.18;81.91;100011.87;131378;1250;106731;-84
2023/12/09 13:57:34;;;;;;;165.40;54.10;;;;;;;2.13;82.01;100012.52;131367;1250;107603;-84
2023/12/09 14:00:40;;;;;;;90.60;36.60;;;;;;;2.12;82.17;100006.45;131728;1249;107037;-82